Time;durP1;ratioP1;P1;durP2;ratioP2;P2;SDS_P1;SDS_P2;PMS_P1;PMS_P2;Temp;Humidity;BMP_temperature;BMP_pressure;BME280_temperature;BME280_humidity;BME280_pressure;Samples;Min_cycle;Max_cycle;Signal;HPM_P1;HPM_P2
2023/08/10 00:00:15;;;;;;;7.13;2.85;;;14.70;99.90;;;;;;5052400;28;20574;-78
2023/08/10 00:02:44;;;;;;;8.55;2.80;;;14.90;99.90;;;;;;5059659;28;20413;-79
2023/08/10 00:05:10;;;;;;;6.45;2.90;;;14.80;99.90;;;;;;5034362;28;20471;-78
2023/08/10 00:07:37;;;;;;;13.50;3.17;;;14.90;99.90;;;;;;5030426;28;20505;-78
2023/08/10 00:10:04;;;;;;;13.00;3.00;;;14.90;99.90;;;;;;5020181;28;20424;-78
2023/08/10 00:12:30;;;;;;;8.82;3.03;;;;;;;;;;5058135;28;20425;-79
2023/08/10 00:14:56;;;;;;;7.20;2.72;;;;;;;;;;5035388;28;20439;-77
2023/08/10 00:17:22;;;;;;;7.35;2.70;;;14.70;99.90;;;;;;5036158;28;20752;-79
2023/08/10 00:19:49;;;;;;;8.02;3.10;;;14.80;99.90;;;;;;5033791;28;20483;-78
2023/08/10 00:22:15;;;;;;;9.32;2.90;;;14.60;99.90;;;;;;5036373;28;20423;-79
2023/08/10 00:24:41;;;;;;;7.80;2.70;;;14.80;99.90;;;;;;5003085;28;20943;-79
2023/08/10 00:27:06;;;;;;;13.77;3.53;;;14.60;99.90;;;;;;5030657;28;20479;-79
2023/08/10 00:29:33;;;;;;;6.37;3.10;;;14.70;99.90;;;;;;5022408;28;20407;-79
2023/08/10 00:31:59;;;;;;;6.40;2.80;;;14.60;99.90;;;;;;5038733;28;20431;-79
2023/08/10 00:34:25;;;;;;;5.17;2.77;;;14.60;99.90;;;;;;5053066;28;20483;-79
2023/08/10 00:36:50;;;;;;;7.97;2.73;;;14.60;99.90;;;;;;5047671;28;20952;-77
2023/08/10 00:39:17;;;;;;;7.72;3.08;;;;;;;;;;5017430;28;20409;-78
2023/08/10 00:41:43;;;;;;;6.88;3.10;;;14.50;99.90;;;;;;5033938;28;20412;-79
2023/08/10 00:44:09;;;;;;;7.47;2.88;;;14.50;99.90;;;;;;5068244;28;20436;-79
2023/08/10 00:46:35;;;;;;;8.20;3.15;;;14.20;99.90;;;;;;5035721;28;20502;-79
2023/08/10 00:49:02;;;;;;;7.18;3.30;;;14.20;99.90;;;;;;5037388;28;20412;-79
2023/08/10 00:51:28;;;;;;;7.45;3.15;;;14.20;99.90;;;;;;5025751;28;20921;-79
2023/08/10 00:53:54;;;;;;;6.72;3.03;;;;;;;;;;5017350;28;20768;-79
2023/08/10 00:56:20;;;;;;;8.88;3.15;;;14.40;99.90;;;;;;5040528;28;20626;-79
2023/08/10 00:58:47;;;;;;;6.57;3.00;;;14.30;99.90;;;;;;5052268;28;20403;-79
2023/08/10 01:01:13;;;;;;;8.83;3.40;;;14.40;99.90;;;;;;5071668;28;20396;-79
2023/08/10 01:03:39;;;;;;;7.47;3.17;;;14.20;99.90;;;;;;5000480;28;20988;-79
2023/08/10 01:06:05;;;;;;;9.40;3.10;;;;;;;;;;5027148;28;20415;-79
2023/08/10 01:08:54;;;;;;;9.75;3.30;;;14.10;99.90;;;;;;5035432;28;20457;-79
2023/08/10 01:11:26;;;;;;;8.00;3.33;;;14.30;99.90;;;;;;5073331;28;20412;-78
2023/08/10 01:13:55;;;;;;;8.55;3.53;;;;;;;;;;5054393;28;20420;-78
2023/08/10 01:16:22;;;;;;;6.95;3.20;;;;;;;;;;5056827;28;20396;-78
2023/08/10 01:18:49;;;;;;;7.00;3.33;;;;;;;;;;5039721;28;20527;-79
2023/08/10 01:21:49;;;;;;;7.60;3.57;;;14.00;99.90;;;;;;5053970;28;20468;-79
2023/08/10 01:24:36;;;;;;;8.75;3.63;;;14.10;99.90;;;;;;5037958;28;20407;-79
2023/08/10 01:27:02;;;;;;;9.60;3.85;;;;;;;;;;5039578;28;20430;-78
2023/08/10 01:29:29;;;;;;;8.32;3.70;;;;;;;;;;5040145;28;20452;-78
2023/08/10 01:31:55;;;;;;;13.70;3.63;;;;;;;;;;5053444;28;20421;-78
2023/08/10 01:34:21;;;;;;;8.60;3.90;;;;;;;;;;5038954;28;20405;-79
2023/08/10 01:36:46;;;;;;;9.88;3.95;;;13.90;99.90;;;;;;5068415;28;20419;-78
2023/08/10 01:39:13;;;;;;;12.20;3.90;;;;;;;;;;5035441;28;20765;-78
2023/08/10 01:41:39;;;;;;;8.20;3.75;;;;;;;;;;5065150;28;20412;-78
2023/08/10 01:44:05;;;;;;;8.15;3.80;;;;;;;;;;5040131;28;20431;-78
2023/08/10 01:46:36;;;;;;;6.53;3.60;;;13.70;99.90;;;;;;5055172;28;20408;-79
2023/08/10 01:49:04;;;;;;;8.40;4.22;;;;;;;;;;5040110;28;20399;-79
2023/08/10 01:51:31;;;;;;;7.22;3.92;;;;;;;;;;5040127;28;20790;-78
2023/08/10 01:53:57;;;;;;;7.45;3.67;;;;;;;;;;5060022;28;20770;-79
2023/08/10 01:56:24;;;;;;;8.00;3.75;;;13.60;99.90;;;;;;5033017;28;20477;-79
2023/08/10 01:58:51;;;;;;;11.02;4.10;;;;;;;;;;5020550;28;20401;-79
2023/08/10 02:01:17;;;;;;;14.80;3.80;;;;;;;;;;5034223;28;20423;-79
2023/08/10 02:03:43;;;;;;;9.05;4.07;;;;;;;;;;5061234;28;20893;-78
2023/08/10 02:06:08;;;;;;;9.43;4.10;;;13.30;99.90;;;;;;5011826;28;20424;-79
2023/08/10 02:08:34;;;;;;;7.25;3.58;;;;;;;;;;5050800;28;20781;-79
2023/08/10 02:11:00;;;;;;;9.73;3.70;;;;;;;;;;5039598;28;20839;-79
2023/08/10 02:13:27;;;;;;;7.15;4.03;;;;;;;;;;5055959;28;20991;-79
2023/08/10 02:15:53;;;;;;;10.40;3.80;;;;;;;;;;5054550;28;20412;-78
2023/08/10 02:18:19;;;;;;;10.95;4.05;;;;;;;;;;5051438;28;20458;-79
2023/08/10 02:20:44;;;;;;;9.80;3.90;;;13.40;99.90;;;;;;5036411;28;20841;-79
2023/08/10 02:23:10;;;;;;;6.97;3.90;;;;;;;;;;5022466;28;20482;-79
2023/08/10 02:25:36;;;;;;;7.97;3.90;;;;;;;;;;5055592;28;20487;-79
2023/08/10 02:28:03;;;;;;;7.80;4.10;;;;;;;;;;5038794;28;20479;-79
2023/08/10 02:30:29;;;;;;;9.07;3.80;;;;;;;;;;5020158;28;20608;-79
2023/08/10 02:32:55;;;;;;;8.40;4.32;;;;;;;;;;5037490;28;20459;-79
2023/08/10 02:35:21;;;;;;;7.43;3.70;;;;;;;;;;5037773;28;20417;-79
2023/08/10 02:37:47;;;;;;;7.93;3.60;;;;;;;;;;5019004;28;20405;-79
2023/08/10 02:40:14;;;;;;;8.45;3.83;;;;;;;;;;5021766;28;20470;-79
2023/08/10 02:42:42;;;;;;;9.93;4.03;;;;;;;;;;5051492;28;20432;-79
2023/08/10 02:45:08;;;;;;;6.57;3.65;;;;;;;;;;5035745;28;20427;-79
2023/08/10 02:47:34;;;;;;;7.25;4.10;;;;;;;;;;5018699;28;20420;-79
2023/08/10 02:50:00;;;;;;;9.17;3.50;;;;;;;;;;5021307;28;20922;-79
2023/08/10 02:52:27;;;;;;;7.63;3.53;;;;;;;;;;5068735;28;20511;-79
2023/08/10 02:54:53;;;;;;;9.68;3.85;;;;;;;;;;5038162;28;20950;-79
2023/08/10 02:57:19;;;;;;;8.88;4.70;;;13.60;99.90;;;;;;5048995;28;20425;-79
2023/08/10 02:59:45;;;;;;;7.07;4.00;;;;;;;;;;5028599;28;20443;-79
2023/08/10 03:02:11;;;;;;;7.80;3.83;;;;;;;;;;5046665;28;20487;-79
2023/08/10 03:04:38;;;;;;;8.43;4.10;;;;;;;;;;5053986;28;20937;-79
2023/08/10 03:07:04;;;;;;;8.90;4.18;;;;;;;;;;5021624;28;20411;-79
2023/08/10 03:09:31;;;;;;;10.03;4.30;;;;;;;;;;5022097;28;20823;-79
2023/08/10 03:11:57;;;;;;;12.18;4.60;;;;;;;;;;5065718;28;20940;-79
2023/08/10 03:14:23;;;;;;;9.63;4.10;;;;;;;;;;5024453;28;20743;-79
2023/08/10 03:16:49;;;;;;;7.28;4.10;;;;;;;;;;5049720;28;20832;-79
2023/08/10 03:19:15;;;;;;;8.95;4.43;;;13.70;99.90;;;;;;5017844;28;20425;-79
2023/08/10 03:21:41;;;;;;;7.40;4.13;;;;;;;;;;5023559;28;20785;-78
2023/08/10 03:24:07;;;;;;;7.60;3.92;;;;;;;;;;5038184;28;20423;-79
2023/08/10 03:26:33;;;;;;;8.65;4.53;;;13.70;99.90;;;;;;5018869;28;20455;-79
2023/08/10 03:28:59;;;;;;;7.28;4.43;;;13.60;99.90;;;;;;5021040;28;20424;-79
2023/08/10 03:31:25;;;;;;;12.07;4.85;;;;;;;;;;5038713;28;20433;-78
2023/08/10 03:33:51;;;;;;;8.00;4.18;;;;;;;;;;5054637;28;20825;-79
2023/08/10 03:36:19;;;;;;;8.95;4.45;;;;;;;;;;5033683;28;20417;-78
2023/08/10 03:38:45;;;;;;;9.07;4.10;;;;;;;;;;5034573;28;20901;-79
2023/08/10 03:41:11;;;;;;;9.13;4.38;;;;;;;;;;5045086;28;20409;-79
2023/08/10 03:43:37;;;;;;;8.85;4.00;;;;;;;;;;5046985;28;20439;-79
2023/08/10 03:46:03;;;;;;;9.75;4.20;;;13.80;99.90;;;;;;5050467;28;20421;-79
2023/08/10 03:48:28;;;;;;;10.73;3.95;;;13.70;99.90;;;;;;5036984;28;20438;-79
2023/08/10 03:50:54;;;;;;;8.20;3.77;;;14.00;99.90;;;;;;4998266;28;20930;-79
2023/08/10 03:53:20;;;;;;;7.30;3.33;;;;;;;;;;5053913;28;20512;-79
2023/08/10 03:55:47;;;;;;;7.43;4.00;;;;;;;;;;5054369;28;20415;-79
2023/08/10 03:58:13;;;;;;;9.02;3.88;;;;;;;;;;5034522;28;20413;-79
2023/08/10 04:00:44;;;;;;;7.47;3.40;;;13.80;99.90;;;;;;5001805;28;20481;-79
2023/08/10 04:03:11;;;;;;;7.93;3.42;;;;;;;;;;5030520;28;20423;-79
2023/08/10 04:05:37;;;;;;;11.90;3.70;;;13.80;99.90;;;;;;5053775;28;20534;-79
2023/08/10 04:08:03;;;;;;;8.93;4.00;;;;;;;;;;5033783;28;20416;-79
2023/08/10 04:10:29;;;;;;;9.40;3.85;;;13.60;99.90;;;;;;5030434;28;20416;-78
2023/08/10 04:12:55;;;;;;;7.15;3.72;;;;;;;;;;5053982;28;20818;-78
2023/08/10 04:15:21;;;;;;;7.83;3.90;;;;;;;;;;5054329;28;20753;-79
2023/08/10 04:17:47;;;;;;;9.85;4.05;;;13.90;99.90;;;;;;5037433;28;20457;-79
2023/08/10 04:20:14;;;;;;;9.33;4.10;;;14.00;99.90;;;;;;5003780;28;20779;-79
2023/08/10 04:22:39;;;;;;;11.38;4.13;;;14.00;99.90;;;;;;5051741;28;20498;-79
2023/08/10 04:25:07;;;;;;;7.40;4.35;;;;;;;;;;5043038;28;20821;-79
2023/08/10 04:27:36;;;;;;;7.20;4.13;;;;;;;;;;5020834;28;20783;-78
2023/08/10 04:30:04;;;;;;;6.30;3.97;;;13.80;99.90;;;;;;5071508;28;20399;-79
2023/08/10 04:32:30;;;;;;;7.60;4.00;;;14.00;99.90;;;;;;5053153;28;20461;-78
2023/08/10 04:34:55;;;;;;;7.37;3.97;;;13.90;99.90;;;;;;5036518;28;20756;-78
2023/08/10 04:37:21;;;;;;;6.50;3.90;;;14.10;99.90;;;;;;5041811;28;20451;-79
2023/08/10 04:39:47;;;;;;;13.50;4.43;;;;;;;;;;5017275;28;20397;-79
2023/08/10 04:42:14;;;;;;;7.78;4.15;;;;;;;;;;5021289;28;20398;-79
2023/08/10 04:44:40;;;;;;;10.15;4.35;;;13.90;99.90;;;;;;5035523;28;20411;-78
2023/08/10 04:47:06;;;;;;;9.32;4.40;;;13.90;99.90;;;;;;5040939;28;20400;-79
2023/08/10 04:49:31;;;;;;;8.70;3.97;;;14.20;99.90;;;;;;5053629;28;20409;-79
2023/08/10 04:51:57;;;;;;;6.97;4.50;;;;;;;;;;5037352;28;20777;-79
2023/08/10 04:54:24;;;;;;;9.98;4.30;;;;;;;;;;5020623;28;20429;-78
2023/08/10 04:56:50;;;;;;;10.18;4.38;;;;;;;;;;5021094;28;20401;-78
2023/08/10 04:59:16;;;;;;;7.80;4.35;;;14.00;99.90;;;;;;5049720;28;20438;-79
2023/08/10 05:01:42;;;;;;;9.38;4.53;;;;;;;;;;5030514;28;20453;-79
2023/08/10 05:04:08;;;;;;;8.18;4.63;;;13.90;99.90;;;;;;5048366;28;20463;-79
2023/08/10 05:06:34;;;;;;;12.02;4.90;;;14.10;99.90;;;;;;5037290;28;20970;-79
2023/08/10 05:09:06;;;;;;;8.80;5.00;;;14.10;99.90;;;;;;5023141;28;20401;-78
2023/08/10 05:11:32;;;;;;;10.75;4.70;;;;;;;;;;5024649;28;20400;-79
2023/08/10 05:13:59;;;;;;;8.43;4.68;;;;;;;;;;5040562;28;20498;-79
2023/08/10 05:16:25;;;;;;;9.82;5.00;;;14.40;99.90;;;;;;5037178;28;20746;-80
2023/08/10 05:18:51;;;;;;;9.13;4.87;;;14.50;99.90;;;;;;5040594;28;20427;-78
2023/08/10 05:21:17;;;;;;;13.10;5.27;;;14.50;99.90;;;;;;5040333;28;20404;-79
2023/08/10 05:23:43;;;;;;;9.18;5.00;;;14.50;99.90;;;;;;5052813;28;20524;-78
2023/08/10 05:26:10;;;;;;;8.30;4.28;;;14.30;99.90;;;;;;5034177;28;20417;-79
2023/08/10 05:28:36;;;;;;;11.13;4.38;;;14.70;99.90;;;;;;5035089;28;20502;-79
2023/08/10 05:31:01;;;;;;;10.48;4.78;;;14.90;99.90;;;;;;5049813;28;20514;-79
2023/08/10 05:33:27;;;;;;;8.70;4.03;;;14.80;99.90;;;;;;5027510;28;20978;-79
2023/08/10 05:35:53;;;;;;;6.90;4.07;;;15.00;99.90;;;;;;5050753;28;20441;-79
2023/08/10 05:38:19;;;;;;;7.03;3.77;;;14.60;99.90;;;;;;5066735;28;20411;-78
2023/08/10 05:40:44;;;;;;;9.45;3.88;;;14.60;99.90;;;;;;5060286;28;20471;-78
2023/08/10 05:43:10;;;;;;;8.90;3.67;;;14.70;99.90;;;;;;5020725;28;20432;-78
2023/08/10 05:45:36;;;;;;;9.13;4.30;;;14.90;99.90;;;;;;5047463;28;20936;-78
2023/08/10 05:48:09;;;;;;;11.55;3.80;;;14.90;99.90;;;;;;5053750;28;20459;-78
2023/08/10 05:50:34;;;;;;;10.77;4.10;;;14.80;99.90;;;;;;5034648;28;20483;-78
2023/08/10 05:53:00;;;;;;;8.83;3.93;;;14.90;99.90;;;;;;5062773;28;20474;-78
2023/08/10 05:55:26;;;;;;;11.43;4.37;;;14.70;99.90;;;;;;5069721;28;20514;-78
2023/08/10 05:57:52;;;;;;;8.32;4.32;;;14.80;99.90;;;;;;5035923;28;20424;-78
2023/08/10 06:00:18;;;;;;;9.20;4.30;;;14.90;99.90;;;;;;5063979;28;20950;-77
2023/08/10 06:02:45;;;;;;;8.93;4.50;;;14.90;99.90;;;;;;5054282;28;20443;-78
2023/08/10 06:05:12;;;;;;;7.18;3.95;;;15.20;99.90;;;;;;5059388;28;20436;-78
2023/08/10 06:07:38;;;;;;;7.97;3.90;;;15.30;99.90;;;;;;5026635;28;20562;-78
2023/08/10 06:10:05;;;;;;;9.13;4.22;;;15.50;99.90;;;;;;5057504;28;20481;-78
2023/08/10 06:12:31;;;;;;;7.78;4.03;;;15.40;99.90;;;;;;5035456;28;20515;-78
2023/08/10 06:14:58;;;;;;;8.23;3.50;;;15.60;99.90;;;;;;5066660;28;20957;-77
2023/08/10 06:17:23;;;;;;;7.15;3.13;;;15.90;99.90;;;;;;5051383;28;20421;-77
2023/08/10 06:19:53;;;;;;;5.28;2.20;;;15.90;99.90;;;;;;5022758;28;20535;-78
2023/08/10 06:22:19;;;;;;;7.50;2.60;;;15.70;99.90;;;;;;5060449;28;20427;-78
2023/08/10 06:24:46;;;;;;;6.55;2.40;;;15.80;99.90;;;;;;5067182;28;20490;-78
2023/08/10 06:27:12;;;;;;;7.35;2.70;;;15.80;99.90;;;;;;5064116;28;20432;-77
2023/08/10 06:29:37;;;;;;;6.75;2.47;;;15.80;99.90;;;;;;5045572;28;20444;-77
2023/08/10 06:32:05;;;;;;;7.00;2.37;;;16.00;99.90;;;;;;5030633;28;20426;-78
2023/08/10 06:34:31;;;;;;;5.40;2.08;;;15.90;99.90;;;;;;5065886;28;20417;-79
2023/08/10 06:36:57;;;;;;;7.97;2.20;;;16.10;99.90;;;;;;5053039;28;20781;-80
2023/08/10 06:39:23;;;;;;;7.17;2.30;;;16.40;99.90;;;;;;5034808;28;20420;-80
2023/08/10 06:41:49;;;;;;;9.90;2.65;;;16.50;99.90;;;;;;5041500;28;20427;-78
2023/08/10 06:44:15;;;;;;;6.38;2.38;;;16.70;99.90;;;;;;5040862;28;20429;-78
2023/08/10 06:46:41;;;;;;;6.10;2.00;;;16.70;99.90;;;;;;5071452;28;21101;-78
2023/08/10 06:49:07;;;;;;;9.60;2.20;;;16.90;99.90;;;;;;5052205;28;20455;-78
2023/08/10 06:51:36;;;;;;;6.22;1.80;;;17.10;99.90;;;;;;5043313;28;20420;-80
2023/08/10 06:54:02;;;;;;;4.43;1.50;;;17.30;99.90;;;;;;5019712;28;20412;-80
2023/08/10 06:56:29;;;;;;;6.55;1.85;;;17.30;99.90;;;;;;5030083;28;20425;-79
2023/08/10 06:58:55;;;;;;;6.57;1.85;;;17.10;99.90;;;;;;5053505;28;20451;-79
2023/08/10 07:01:20;;;;;;;6.30;1.93;;;17.50;99.90;;;;;;5060171;28;20447;-80
2023/08/10 07:03:46;;;;;;;6.60;1.90;;;17.40;99.90;;;;;;5040795;28;20492;-79
2023/08/10 07:06:12;;;;;;;6.53;2.00;;;17.90;99.90;;;;;;5045645;28;20766;-77
2023/08/10 07:08:39;;;;;;;6.22;1.60;;;18.20;99.90;;;;;;5033434;28;20428;-77
2023/08/10 07:11:05;;;;;;;13.45;2.15;;;18.20;99.90;;;;;;5060380;28;20430;-78
2023/08/10 07:13:31;;;;;;;6.38;1.60;;;18.20;99.90;;;;;;5055915;28;20440;-77
2023/08/10 07:15:57;;;;;;;6.78;1.50;;;18.60;99.90;;;;;;5060609;28;20404;-77
2023/08/10 07:18:23;;;;;;;6.63;1.85;;;18.30;99.90;;;;;;5037182;28;20949;-78
2023/08/10 07:20:48;;;;;;;4.18;1.30;;;18.20;99.90;;;;;;5070420;28;20976;-78
2023/08/10 07:23:17;;;;;;;5.88;1.52;;;18.10;99.90;;;;;;5048697;28;20439;-77
2023/08/10 07:25:46;;;;;;;4.80;1.50;;;18.00;99.90;;;;;;5053680;28;20408;-81
2023/08/10 07:28:12;;;;;;;7.07;1.90;;;17.80;99.90;;;;;;5045381;28;20428;-80
2023/08/10 07:30:38;;;;;;;3.97;1.35;;;17.90;99.90;;;;;;4986125;28;20429;-79
2023/08/10 07:33:04;;;;;;;4.68;1.60;;;18.20;99.90;;;;;;5040804;28;20488;-77
2023/08/10 07:35:30;;;;;;;8.98;1.50;;;18.40;99.90;;;;;;5043539;28;20549;-78
2023/08/10 07:37:56;;;;;;;7.00;1.95;;;18.40;99.90;;;;;;5020801;28;20496;-78
2023/08/10 07:40:21;;;;;;;6.07;1.50;;;18.10;99.90;;;;;;5015429;28;20412;-80
2023/08/10 07:42:47;;;;;;;4.40;1.60;;;18.40;99.90;;;;;;5031735;28;20427;-81
2023/08/10 07:45:13;;;;;;;6.00;1.77;;;18.30;99.90;;;;;;5030252;28;20435;-78
2023/08/10 07:47:39;;;;;;;6.30;1.60;;;18.30;99.90;;;;;;5054794;28;20415;-79
2023/08/10 07:50:05;;;;;;;5.38;1.58;;;18.20;99.90;;;;;;5053004;28;20419;-79
2023/08/10 07:52:31;;;;;;;5.28;1.55;;;18.40;99.90;;;;;;5050580;28;21012;-78
2023/08/10 07:54:57;;;;;;;3.10;1.55;;;18.50;99.90;;;;;;5059989;28;20449;-80
2023/08/10 07:57:23;;;;;;;4.65;1.60;;;18.30;99.90;;;;;;5025209;28;20419;-78
2023/08/10 07:59:49;;;;;;;5.65;1.70;;;18.40;99.90;;;;;;5035788;28;20427;-80
2023/08/10 08:02:15;;;;;;;6.18;1.80;;;18.30;99.90;;;;;;5072814;28;20419;-80
2023/08/10 08:04:40;;;;;;;4.53;1.40;;;18.50;99.90;;;;;;5043421;28;20526;-80
2023/08/10 08:07:06;;;;;;;5.80;1.40;;;18.50;99.90;;;;;;5051830;28;20426;-79
2023/08/10 08:09:32;;;;;;;4.10;1.17;;;18.70;99.90;;;;;;5029056;28;20479;-80
2023/08/10 08:11:57;;;;;;;5.53;1.58;;;18.60;99.90;;;;;;5053888;28;20422;-80
2023/08/10 08:14:23;;;;;;;4.57;1.40;;;18.40;99.90;;;;;;5047668;28;20446;-80
2023/08/10 08:16:49;;;;;;;3.30;1.50;;;19.20;99.90;;;;;;5027053;28;20492;-79
2023/08/10 08:19:15;;;;;;;4.85;1.40;;;18.90;99.90;;;;;;5048280;28;20919;-79
2023/08/10 08:21:40;;;;;;;3.22;1.30;;;18.80;99.90;;;;;;5059360;28;20421;-78
2023/08/10 08:24:07;;;;;;;7.17;1.90;;;18.80;99.90;;;;;;5045866;28;20427;-80
2023/08/10 08:26:33;;;;;;;5.22;1.42;;;18.70;99.90;;;;;;5051653;28;20458;-79
2023/08/10 08:28:59;;;;;;;7.35;1.80;;;18.70;99.90;;;;;;5038799;28;20912;-79
2023/08/10 08:31:26;;;;;;;3.67;1.40;;;19.40;99.90;;;;;;5041104;28;20457;-80
2023/08/10 08:33:52;;;;;;;7.38;1.60;;;18.70;99.90;;;;;;5049251;28;20424;-78
2023/08/10 08:36:18;;;;;;;3.70;1.40;;;18.60;99.90;;;;;;5033694;28;20429;-80
2023/08/10 08:38:44;;;;;;;6.38;1.77;;;18.90;99.90;;;;;;5055368;28;20821;-77
2023/08/10 08:41:10;;;;;;;5.03;1.35;;;18.90;99.90;;;;;;5070538;28;20768;-79
2023/08/10 08:43:37;;;;;;;3.78;1.52;;;18.80;99.90;;;;;;5073093;28;20489;-79
2023/08/10 08:46:05;;;;;;;4.10;1.17;;;18.90;99.90;;;;;;5023105;28;20425;-78
2023/08/10 08:48:31;;;;;;;5.00;1.80;;;18.80;99.90;;;;;;5018965;28;20959;-79
2023/08/10 08:50:57;;;;;;;6.15;1.40;;;18.70;99.90;;;;;;5040096;28;20825;-79
2023/08/10 08:53:24;;;;;;;6.73;1.90;;;18.90;99.90;;;;;;5050759;28;20540;-79
2023/08/10 08:55:51;;;;;;;5.65;1.60;;;18.50;99.90;;;;;;5042652;28;20409;-79
2023/08/10 08:58:17;;;;;;;5.30;1.60;;;18.60;99.90;;;;;;5064842;28;20419;-79
2023/08/10 09:00:53;;;;;;;8.40;1.67;;;18.40;99.90;;;;;;5042585;28;20411;-79
2023/08/10 09:03:24;;;;;;;5.07;1.60;;;18.60;99.90;;;;;;5071664;28;20403;-78
2023/08/10 09:05:49;;;;;;;4.88;1.77;;;18.70;99.90;;;;;;5031862;28;20470;-78
2023/08/10 09:08:17;;;;;;;5.13;1.73;;;18.50;99.90;;;;;;5070241;28;20439;-77
2023/08/10 09:10:45;;;;;;;4.93;1.63;;;18.40;99.90;;;;;;5073333;28;20866;-81
2023/08/10 09:13:14;;;;;;;5.97;1.80;;;18.80;99.90;;;;;;5048979;28;20528;-77
2023/08/10 09:15:40;;;;;;;5.15;1.85;;;18.60;99.90;;;;;;5071647;28;20417;-78
2023/08/10 09:18:06;;;;;;;6.30;1.83;;;20.60;99.90;;;;;;5048754;28;20436;-78
2023/08/10 09:20:33;;;;;;;7.82;2.20;;;18.50;99.90;;;;;;5065253;28;20421;-81
2023/08/10 09:22:59;;;;;;;4.95;1.80;;;18.80;99.90;;;;;;5070691;28;20427;-78
2023/08/10 09:25:26;;;;;;;6.73;1.70;;;18.70;99.90;;;;;;5041101;28;20425;-77
2023/08/10 09:27:53;;;;;;;7.05;1.70;;;18.60;99.90;;;;;;5040935;28;20549;-78
2023/08/10 09:30:19;;;;;;;5.13;1.60;;;18.80;99.90;;;;;;5031246;28;20432;-78
2023/08/10 09:32:46;;;;;;;5.63;1.52;;;18.50;99.90;;;;;;5051492;28;20779;-78
2023/08/10 09:35:17;;;;;;;5.03;1.70;;;18.60;99.90;;;;;;5036776;28;20428;-78
2023/08/10 09:37:43;;;;;;;4.05;1.40;;;18.80;99.90;;;;;;5030196;28;20425;-78
2023/08/10 09:40:11;;;;;;;5.47;1.98;;;18.80;99.90;;;;;;5029401;28;20488;-77
2023/08/10 09:42:39;;;;;;;7.97;1.98;;;19.00;99.90;;;;;;5028697;28;20464;-78
2023/08/10 09:45:12;;;;;;;4.68;1.60;;;18.90;99.90;;;;;;5036917;28;20405;-77
2023/08/10 09:47:42;;;;;;;5.90;1.70;;;18.90;99.90;;;;;;5047645;28;20423;-77
2023/08/10 09:50:12;;;;;;;4.13;1.58;;;18.90;99.90;;;;;;5035386;28;20746;-77
2023/08/10 09:52:38;;;;;;;4.75;1.67;;;18.80;99.90;;;;;;5064013;28;20424;-78
2023/08/10 09:55:05;;;;;;;10.85;1.83;;;18.80;99.90;;;;;;5033750;28;20534;-78
2023/08/10 09:57:32;;;;;;;8.32;1.88;;;19.00;99.90;;;;;;5055091;28;20764;-79
2023/08/10 09:59:58;;;;;;;6.30;1.80;;;18.80;99.90;;;;;;5054363;28;20448;-78
2023/08/10 10:02:25;;;;;;;9.37;1.77;;;19.20;99.90;;;;;;5047174;28;20440;-79
2023/08/10 10:04:51;;;;;;;7.03;2.00;;;19.00;99.90;;;;;;5050020;28;20507;-78
2023/08/10 10:07:28;;;;;;;5.85;2.10;;;18.80;99.90;;;;;;5036106;28;20812;-77
2023/08/10 10:09:57;;;;;;;6.63;1.80;;;19.00;99.90;;;;;;5037388;28;20423;-77
2023/08/10 10:12:24;;;;;;;5.18;1.98;;;19.00;99.90;;;;;;5024133;28;20457;-77
2023/08/10 10:14:52;;;;;;;5.90;1.73;;;19.20;99.90;;;;;;5043946;28;20497;-77
2023/08/10 10:17:19;;;;;;;7.65;1.88;;;19.10;99.90;;;;;;5051717;28;20466;-78
2023/08/10 10:19:48;;;;;;;5.25;1.83;;;19.10;99.90;;;;;;5038296;28;20422;-77
2023/08/10 10:22:17;;;;;;;8.95;2.20;;;19.00;99.90;;;;;;5071416;28;20907;-77
2023/08/10 10:24:43;;;;;;;9.57;2.50;;;19.10;99.90;;;;;;5034387;28;20439;-77
2023/08/10 10:27:13;;;;;;;3.80;1.63;;;18.70;99.90;;;;;;5019619;28;20451;-80
2023/08/10 10:29:40;;;;;;;4.53;2.05;;;18.90;99.90;;;;;;5039928;28;20419;-80
2023/08/10 10:32:14;;;;;;;6.65;2.30;;;19.00;99.90;;;;;;5033401;28;20421;-82
2023/08/10 10:34:41;;;;;;;9.43;2.60;;;19.00;99.90;;;;;;5055149;28;20422;-81
2023/08/10 10:37:18;;;;;;;7.35;2.00;;;19.50;99.90;;;;;;5023319;28;20455;-81
2023/08/10 10:39:53;;;;;;;5.72;2.10;;;19.40;99.90;;;;;;5024095;28;20488;-81
2023/08/10 10:42:20;;;;;;;6.93;2.63;;;19.00;99.90;;;;;;5013292;28;20423;-80
2023/08/10 10:45:06;;;;;;;6.20;1.85;;;19.20;99.90;;;;;;5053454;28;20419;-79
2023/08/10 10:47:47;;;;;;;4.68;1.92;;;19.40;99.90;;;;;;5050395;28;20431;-79
2023/08/10 10:50:13;;;;;;;7.03;2.00;;;19.60;99.90;;;;;;5051376;28;20887;-79
2023/08/10 10:52:39;;;;;;;6.40;2.33;;;19.50;99.90;;;;;;5035319;28;20428;-81
2023/08/10 10:55:09;;;;;;;6.23;2.30;;;19.70;99.90;;;;;;5026711;28;22222;-81
2023/08/10 10:57:38;;;;;;;8.02;2.50;;;19.70;99.90;;;;;;5043380;28;20796;-80
2023/08/10 11:00:05;;;;;;;6.60;2.13;;;19.90;99.90;;;;;;5058738;28;20420;-80
2023/08/10 11:02:32;;;;;;;9.60;2.70;;;19.70;99.90;;;;;;5055340;28;20411;-80
2023/08/10 11:04:57;;;;;;;6.30;2.40;;;19.90;99.90;;;;;;5061728;28;20428;-80
2023/08/10 11:07:23;;;;;;;10.13;3.27;;;19.80;99.90;;;;;;5036959;28;20498;-80
2023/08/10 11:09:49;;;;;;;8.57;2.40;;;19.40;99.90;;;;;;5001174;28;20431;-79
2023/08/10 11:12:17;;;;;;;9.18;2.50;;;19.70;99.90;;;;;;5043185;28;20751;-81
2023/08/10 11:14:43;;;;;;;8.00;2.20;;;19.90;99.90;;;;;;5055756;28;20426;-79
2023/08/10 11:17:09;;;;;;;7.07;2.30;;;19.90;99.90;;;;;;5040705;28;20416;-81
2023/08/10 11:19:35;;;;;;;5.40;2.35;;;19.50;99.90;;;;;;5045940;28;20409;-80
2023/08/10 11:22:00;;;;;;;5.68;2.30;;;19.80;99.90;;;;;;5036550;28;20443;-80
2023/08/10 11:24:29;;;;;;;7.87;2.07;;;19.70;99.90;;;;;;5055563;28;20438;-80
2023/08/10 11:26:56;;;;;;;5.53;2.38;;;20.10;99.90;;;;;;5056990;28;20424;-79
2023/08/10 11:29:22;;;;;;;7.03;2.73;;;19.80;99.90;;;;;;5032821;28;20419;-80
2023/08/10 11:31:49;;;;;;;6.27;2.80;;;19.90;99.90;;;;;;5045589;28;20770;-81
2023/08/10 11:34:23;;;;;;;6.70;2.33;;;19.50;99.90;;;;;;5032136;28;20417;-80
2023/08/10 11:36:50;;;;;;;6.95;2.50;;;19.60;99.90;;;;;;5046450;28;20423;-80
2023/08/10 11:39:16;;;;;;;6.45;2.45;;;19.90;99.90;;;;;;5046984;28;20420;-79
2023/08/10 11:41:45;;;;;;;4.95;2.47;;;19.80;99.90;;;;;;5014393;28;20429;-79
2023/08/10 11:44:24;;;;;;;4.75;2.95;;;20.40;99.90;;;;;;5046683;28;20421;-81
2023/08/10 11:46:50;;;;;;;6.47;3.17;;;20.40;99.90;;;;;;5028655;28;20495;-80
2023/08/10 11:49:16;;;;;;;5.35;2.72;;;20.50;99.90;;;;;;5028293;28;20505;-80
2023/08/10 11:51:43;;;;;;;6.18;2.70;;;20.50;99.90;;;;;;5047588;28;20760;-80
2023/08/10 11:54:09;;;;;;;7.07;2.92;;;20.60;99.90;;;;;;5014202;28;20416;-80
2023/08/10 11:56:45;;;;;;;6.68;2.92;;;20.90;99.90;;;;;;5026529;28;20430;-80
2023/08/10 11:59:15;;;;;;;6.85;3.40;;;20.70;99.90;;;;;;5047690;28;20923;-80
2023/08/10 12:01:45;;;;;;;7.23;3.00;;;20.40;99.90;;;;;;5032913;28;20417;-80
2023/08/10 12:04:11;;;;;;;6.17;3.07;;;20.00;99.90;;;;;;5031914;28;20422;-79
2023/08/10 12:06:40;;;;;;;7.80;3.40;;;18.60;99.90;;;;;;5031473;28;20497;-79
2023/08/10 12:09:10;;;;;;;5.65;2.85;;;22.50;99.90;;;;;;5060321;28;20417;-80
2023/08/10 12:11:40;;;;;;;6.32;2.67;;;20.40;99.90;;;;;;4996969;28;20494;-78
2023/08/10 12:14:10;;;;;;;6.45;2.90;;;20.80;99.90;;;;;;5041064;28;20451;-78
2023/08/10 12:16:36;;;;;;;6.75;2.80;;;20.70;99.90;;;;;;5043085;28;20414;-76
2023/08/10 12:19:02;;;;;;;6.90;3.50;;;20.90;99.90;;;;;;5053010;28;20403;-76
2023/08/10 12:21:28;;;;;;;6.10;3.23;;;20.80;99.90;;;;;;5046141;28;20909;-76
2023/08/10 12:23:55;;;;;;;6.47;2.92;;;20.70;99.90;;;;;;5048489;28;20457;-76
2023/08/10 12:26:21;;;;;;;7.40;3.33;;;20.70;99.90;;;;;;5049531;28;20429;-76
2023/08/10 12:28:47;;;;;;;6.53;3.00;;;21.20;99.90;;;;;;5030656;28;20429;-77
2023/08/10 12:31:13;;;;;;;5.88;3.22;;;20.70;99.90;;;;;;5039394;28;20480;-77
2023/08/10 12:33:40;;;;;;;7.00;3.10;;;20.40;99.90;;;;;;5026401;28;20919;-76
2023/08/10 12:36:07;;;;;;;7.53;3.03;;;20.60;99.90;;;;;;5047730;28;20814;-76
2023/08/10 12:38:33;;;;;;;7.10;3.78;;;20.80;99.90;;;;;;5070903;28;20410;-76
2023/08/10 12:40:59;;;;;;;7.22;3.40;;;20.50;99.90;;;;;;5066579;28;20415;-76
2023/08/10 12:43:24;;;;;;;7.10;3.05;;;20.60;99.90;;;;;;5061525;28;20422;-76
2023/08/10 12:45:50;;;;;;;5.40;3.07;;;20.60;99.90;;;;;;5060348;28;20498;-76
2023/08/10 12:48:16;;;;;;;8.55;3.33;;;20.80;99.90;;;;;;5046285;28;21164;-76
2023/08/10 12:50:42;;;;;;;6.43;3.30;;;21.10;99.90;;;;;;5050648;28;20464;-76
2023/08/10 12:53:08;;;;;;;7.50;3.50;;;20.80;99.90;;;;;;5051755;28;20460;-76
2023/08/10 12:55:34;;;;;;;7.13;3.70;;;20.90;99.90;;;;;;5067918;28;20796;-76
2023/08/10 12:58:00;;;;;;;8.32;3.60;;;20.80;99.90;;;;;;5048086;28;20410;-76
2023/08/10 13:00:26;;;;;;;7.40;3.60;;;21.00;99.90;;;;;;5066694;28;21172;-77
2023/08/10 13:02:52;;;;;;;6.57;3.33;;;20.80;99.90;;;;;;5027961;28;20940;-76
2023/08/10 13:05:18;;;;;;;7.47;4.10;;;21.10;99.90;;;;;;5033377;28;20415;-76
2023/08/10 13:07:45;;;;;;;7.32;3.40;;;20.60;99.90;;;;;;5064936;28;20472;-76